Time;durP1;ratioP1;P1;durP2;ratioP2;P2;SDS_P1;SDS_P2;PMS_P1;PMS_P2;Temp;Humidity;BMP_temperature;BMP_pressure;BME280_temperature;BME280_humidity;BME280_pressure;Samples;Min_cycle;Max_cycle;Signal;HPM_P1;HPM_P2
2022/07/10 00:00:59;;;;;;;5.40;2.75;;;;;;;-145.69;98.34;71545.66;5074178;28;20202;-79
2022/07/10 00:03:27;;;;;;;4.70;2.80;;;;;;;-145.69;98.56;71549.66;5073405;28;20580;-79
2022/07/10 00:05:53;;;;;;;6.00;2.70;;;;;;;-145.69;100.00;71557.59;5074059;28;20206;-79
2022/07/10 00:08:20;;;;;;;7.20;3.10;;;;;;;-145.69;99.05;71557.59;5074138;28;20209;-79
2022/07/10 00:10:46;;;;;;;4.40;2.40;;;;;;;-145.69;100.00;71565.56;5072814;28;20199;-79
2022/07/10 00:13:12;;;;;;;5.43;2.70;;;;;;;-145.69;100.00;71573.53;5073629;28;20203;-79
2022/07/10 00:15:39;;;;;;;4.75;2.83;;;;;;;-145.69;100.00;71589.44;5073419;28;20653;-79
2022/07/10 00:18:05;;;;;;;4.28;2.60;;;;;;;-145.69;100.00;71607.34;5073468;28;20237;-79
2022/07/10 00:20:34;;;;;;;6.18;2.70;;;;;;;-145.69;100.00;71629.25;5073267;28;20206;-79
2022/07/10 00:23:00;;;;;;;5.28;2.85;;;;;;;-145.69;100.00;71637.19;5073323;28;20347;-79
2022/07/10 00:25:27;;;;;;;6.28;2.83;;;;;;;-145.69;100.00;71645.16;5073129;28;20194;-79
2022/07/10 00:27:53;;;;;;;7.50;3.25;;;;;;;-145.69;100.00;71635.22;5073730;28;20344;-79
2022/07/10 00:30:20;;;;;;;4.13;2.80;;;;;;;-145.69;100.00;71641.19;5073632;28;20198;-79
2022/07/10 00:32:46;;;;;;;5.60;2.97;;;;;;;-145.69;100.00;71633.22;5073589;28;20596;-79
2022/07/10 00:35:12;;;;;;;5.25;2.78;;;;;;;-145.69;100.00;71643.19;5073108;28;20195;-80
2022/07/10 00:37:40;;;;;;;5.65;3.35;;;;;;;-145.69;100.00;71643.19;5073367;28;20276;-79
2022/07/10 00:40:08;;;;;;;5.00;3.10;;;;;;;-145.69;100.00;71671.03;5073188;28;20645;-79
2022/07/10 00:42:34;;;;;;;3.47;2.72;;;;;;;-145.69;100.00;71692.94;5073593;28;20210;-79
2022/07/10 00:45:01;;;;;;;4.18;3.25;;;;;;;-145.69;100.00;71696.91;5072934;28;20674;-79
2022/07/10 00:47:27;;;;;;;4.82;2.95;;;;;;;-145.69;100.00;71716.81;5073414;28;20199;-80
2022/07/10 00:49:53;;;;;;;5.55;2.80;;;;;;;-145.69;100.00;71694.91;5072992;28;20708;-79
2022/07/10 00:52:21;;;;;;;6.00;3.40;;;;;;;-145.69;100.00;71690.94;5072781;28;20194;-80
2022/07/10 00:54:50;;;;;;;4.65;3.45;;;;;;;-145.69;100.00;71686.97;5073000;28;20202;-79
2022/07/10 00:57:18;;;;;;;3.90;3.28;;;;;;;-145.69;100.00;71704.88;5073099;28;20589;-79
2022/07/10 00:59:45;;;;;;;13.68;3.65;;;;;;;-145.69;100.00;71718.78;5072604;28;20581;-79
2022/07/10 01:02:12;;;;;;;9.32;3.53;;;;;;;-145.69;100.00;71722.78;5073047;28;20669;-79
2022/07/10 01:04:38;;;;;;;4.50;3.03;;;;;;;-145.69;100.00;71742.69;5072950;28;20202;-79
2022/07/10 01:07:05;;;;;;;5.63;3.03;;;;;;;-145.69;100.00;71754.63;5072865;28;20199;-80
2022/07/10 01:09:32;;;;;;;7.32;3.65;;;;;;;-145.69;100.00;71756.59;5073074;28;20231;-80
2022/07/10 01:12:02;;;;;;;6.65;4.00;;;;;;;-145.69;100.00;71732.72;5072635;28;20688;-79
2022/07/10 01:14:29;;;;;;;5.43;4.03;;;;;;;-145.69;100.00;71736.72;5073064;28;20234;-79
2022/07/10 01:16:55;;;;;;;6.22;3.80;;;;;;;-145.69;100.00;71770.53;5072911;28;20230;-80
2022/07/10 01:19:22;;;;;;;6.45;3.83;;;;;;;-145.69;100.00;71782.47;5072870;28;20206;-79
2022/07/10 01:21:49;;;;;;;4.35;3.20;;;;;;;-145.69;100.00;71796.41;5072330;28;20217;-79
2022/07/10 01:24:16;;;;;;;4.95;3.63;;;;;;;-145.69;100.00;71812.31;5073056;28;20199;-79
2022/07/10 01:26:43;;;;;;;7.53;3.30;;;;;;;-145.69;100.00;71822.28;5072858;28;20213;-79
2022/07/10 01:29:11;;;;;;;5.40;3.17;;;;;;;-145.69;100.00;71842.19;5072773;28;20206;-79
2022/07/10 01:31:38;;;;;;;7.37;3.63;;;;;;;-145.69;100.00;71842.19;5058382;28;20206;-79
2022/07/10 01:34:07;;;;;;;4.97;3.57;;;;;;;-145.69;100.00;71870.03;5056060;28;20231;-80
2022/07/10 01:36:34;;;;;;;3.80;3.37;;;;;;;-145.69;100.00;71874.03;5056983;28;20235;-79
2022/07/10 01:39:03;;;;;;;5.60;3.53;;;;;;;-145.69;100.00;71874.03;5056299;28;20204;-79
2022/07/10 01:41:29;;;;;;;7.22;4.25;;;;;;;-145.69;100.00;71880.00;5076052;28;20207;-79
2022/07/10 01:43:56;;;;;;;9.97;3.80;;;;;;;-145.69;100.00;71895.91;5076921;28;20198;-79
2022/07/10 01:46:24;;;;;;;6.00;4.03;;;;;;;-145.69;100.00;71907.84;5076743;28;20198;-80
2022/07/10 01:48:50;;;;;;;4.33;3.40;;;;;;;-145.69;100.00;71929.75;5076141;28;20232;-79
2022/07/10 01:51:16;;;;;;;6.30;3.93;;;;;;;-145.69;100.00;71931.72;5076178;28;20589;-79
2022/07/10 01:53:43;;;;;;;6.60;3.93;;;;;;;-145.69;100.00;71935.72;5076350;28;20551;-80
2022/07/10 01:56:13;;;;;;;6.90;3.97;;;;;;;-145.69;100.00;71937.69;5076581;28;20198;-79
2022/07/10 01:58:40;;;;;;;6.67;4.47;;;;;;;-145.69;100.00;71947.66;5076453;28;20230;-79
2022/07/10 02:01:07;;;;;;;6.53;4.77;;;;;;;-145.69;100.00;71931.72;5076394;28;20203;-79
2022/07/10 02:06:18;;;;;;;5.83;4.20;;;;;;;-145.69;100.00;71951.63;5076186;28;20210;-79
2022/07/10 02:08:44;;;;;;;8.37;4.50;;;;;;;-145.69;100.00;71963.56;5076408;28;20206;-78
2022/07/10 02:11:13;;;;;;;7.63;5.70;;;;;;;-145.69;100.00;71967.56;5076125;28;20198;-79
2022/07/10 02:13:39;;;;;;;6.90;5.07;;;;;;;-145.69;100.00;71971.53;5075537;28;20195;-79
2022/07/10 02:16:06;;;;;;;7.43;4.83;;;;;;;-145.69;100.00;71975.50;5075841;28;20202;-79
2022/07/10 02:18:33;;;;;;;7.17;4.93;;;;;;;-145.69;100.00;71987.47;5075885;28;20620;-79
2022/07/10 02:20:59;;;;;;;5.87;4.40;;;;;;;-145.69;100.00;71979.50;5075965;28;20696;-79
2022/07/10 02:23:26;;;;;;;8.00;4.93;;;;;;;-145.69;100.00;71991.44;5076113;28;20558;-79
2022/07/10 02:25:52;;;;;;;6.83;4.30;;;;;;;-145.69;100.00;71999.41;5075854;28;20202;-79
2022/07/10 02:28:20;;;;;;;7.87;4.73;;;;;;;-145.69;100.00;72007.34;5076070;28;20203;-79
2022/07/10 02:30:46;;;;;;;10.67;5.37;;;;;;;-145.69;100.00;72019.31;5075874;28;20203;-79
2022/07/10 02:33:13;;;;;;;9.37;5.17;;;;;;;-145.69;100.00;72015.31;5075863;28;20617;-79
2022/07/10 02:35:39;;;;;;;8.70;4.40;;;;;;;-145.69;100.00;72031.25;5076033;28;20205;-79
2022/07/10 02:38:06;;;;;;;7.93;4.83;;;;;;;-145.69;100.00;72021.28;5075780;28;20227;-79
2022/07/10 02:40:32;;;;;;;5.70;4.67;;;;;;;-145.69;100.00;72035.22;5075686;28;20597;-79
2022/07/10 02:42:58;;;;;;;7.87;5.20;;;;;;;-145.69;100.00;72039.19;5074586;28;20209;-79
2022/07/10 02:45:26;;;;;;;6.90;5.20;;;;;;;-145.69;100.00;72047.16;5075578;28;20214;-79
2022/07/10 02:47:53;;;;;;;10.07;5.30;;;;;;;-145.69;100.00;72059.09;5075670;28;20229;-79
2022/07/10 02:50:19;;;;;;;11.37;5.20;;;;;;;-145.69;100.00;72059.09;5075353;28;20238;-80
2022/07/10 02:52:47;;;;;;;9.63;5.63;;;;;;;-145.69;100.00;72051.16;5074937;28;20205;-80
2022/07/10 02:55:13;;;;;;;7.63;5.07;;;;;;;-145.69;100.00;72057.13;5075401;28;20199;-79
2022/07/10 02:57:39;;;;;;;13.40;6.00;;;;;;;-145.69;100.00;72067.06;5075220;28;20573;-79
2022/07/10 03:00:07;;;;;;;7.93;5.80;;;;;;;-145.69;100.00;72075.03;5075268;28;20198;-79
2022/07/10 03:02:35;;;;;;;10.40;6.07;;;;;;;-145.69;100.00;72059.09;5075154;28;20226;-79
2022/07/10 03:05:01;;;;;;;9.90;6.13;;;;;;;-145.69;100.00;72059.09;5075344;28;20198;-79
2022/07/10 03:07:28;;;;;;;9.50;5.97;;;;;;;-145.69;100.00;72071.03;5075039;28;20203;-79
2022/07/10 03:09:54;;;;;;;8.67;5.67;;;;;;;-145.69;100.00;72075.03;5074439;28;20218;-79
2022/07/10 03:12:20;;;;;;;9.67;5.90;;;;;;;-145.69;100.00;72077.00;5075223;28;20202;-79
2022/07/10 03:14:47;;;;;;;8.80;5.30;;;;;;;-145.69;100.00;72079.00;5075079;28;20195;-80
2022/07/10 03:17:13;;;;;;;10.57;6.77;;;;;;;-145.69;100.00;72067.06;5075015;28;20199;-79
2022/07/10 03:19:41;;;;;;;12.10;6.60;;;;;;;-145.69;100.00;72063.09;5074479;28;20203;-79
2022/07/10 03:22:08;;;;;;;8.37;5.23;;;;;;;-145.69;100.00;72069.06;5074962;28;20198;-79
2022/07/10 03:24:34;;;;;;;8.40;5.67;;;;;;;-145.69;100.00;72073.03;5071935;28;20249;-80
2022/07/10 03:27:00;;;;;;;9.10;5.37;;;;;;;-145.69;100.00;72071.03;5055072;28;20206;-79
2022/07/10 03:29:27;;;;;;;7.53;6.13;;;;;;;-145.69;100.00;72079.00;5055095;28;20377;-79
2022/07/10 03:31:53;;;;;;;8.60;5.80;;;;;;;-145.69;100.00;72090.94;5054653;28;20207;-79
2022/07/10 03:34:20;;;;;;;9.87;5.80;;;;;;;-145.69;100.00;72071.03;5054769;28;20283;-79
2022/07/10 03:36:47;;;;;;;12.17;7.50;;;;;;;-145.69;100.00;72053.13;5054133;28;20203;-79
2022/07/10 03:39:14;;;;;;;12.57;8.30;;;;;;;-145.69;100.00;72039.19;5054376;28;20238;-79
2022/07/10 03:41:40;;;;;;;12.03;7.83;;;;;;;-145.69;100.00;72035.22;5054814;28;20195;-79
2022/07/10 03:44:07;;;;;;;12.77;7.77;;;;;;;-145.69;100.00;72023.28;5068011;28;20665;-80
2022/07/10 03:46:33;;;;;;;12.27;8.00;;;;;;;-145.69;100.00;72001.38;5073920;28;20206;-79
2022/07/10 03:49:00;;;;;;;14.40;8.00;;;;;;;-145.69;100.00;71979.50;5074180;28;20242;-79
2022/07/10 03:51:26;;;;;;;13.10;8.40;;;;;;;-145.69;100.00;71959.59;5074411;28;20205;-79
2022/07/10 03:53:54;;;;;;;13.67;9.03;;;;;;;-145.69;100.00;71939.69;5073957;28;20234;-78
2022/07/10 03:59:01;;;;;;;8.73;6.57;;;;;;;-145.69;100.00;71925.75;5073686;28;20226;-79
2022/07/10 04:01:27;;;;;;;8.07;6.47;;;;;;;-145.69;100.00;71925.75;5073807;28;20277;-79
2022/07/10 04:03:54;;;;;;;6.85;4.97;;;;;;;-145.69;100.00;71919.78;5073817;28;20207;-80
2022/07/10 04:06:20;;;;;;;7.60;4.97;;;;;;;-145.69;100.00;71913.81;5073906;28;20199;-79
2022/07/10 04:08:46;;;;;;;11.17;6.23;;;;;;;-145.69;100.00;71909.84;5073859;28;20210;-80
2022/07/10 04:11:14;;;;;;;21.83;12.85;;;;;;;-145.69;100.00;71868.06;5074073;28;20202;-79
2022/07/10 04:13:40;;;;;;;22.23;13.03;;;;;;;-145.69;100.00;71854.13;5073831;28;20199;-79
2022/07/10 04:16:10;;;;;;;27.88;16.73;;;;;;;-145.69;100.00;71830.25;5073674;28;20198;-80
2022/07/10 04:18:36;;;;;;;27.27;17.87;;;;;;;-145.69;100.00;71794.41;5073717;28;20271;-79
2022/07/10 04:21:03;;;;;;;30.20;17.20;;;;;;;-145.69;100.00;71778.50;5073472;28;20210;-80
2022/07/10 04:23:29;;;;;;;33.67;20.58;;;;;;;-145.69;100.00;71760.59;5073468;28;20438;-80
2022/07/10 04:25:57;;;;;;;38.22;22.55;;;;;;;-145.69;100.00;71738.69;5073708;28;20198;-82
2022/07/10 04:28:25;;;;;;;34.00;18.38;;;;;;;-145.69;100.00;71724.75;5073356;28;20206;-80
2022/07/10 04:30:52;;;;;;;28.23;17.00;;;;;;;-145.69;100.00;71716.81;5073256;28;20252;-79
2022/07/10 04:33:18;;;;;;;32.53;20.33;;;;;;;-145.69;100.00;71696.91;5073492;28;20205;-79
2022/07/10 04:35:45;;;;;;;37.67;19.10;;;;;;;-145.69;100.00;71700.88;5073614;28;20199;-80
2022/07/10 04:38:11;;;;;;;38.97;20.08;;;;;;;-145.69;100.00;71696.91;5073456;28;20259;-80
2022/07/10 04:40:37;;;;;;;30.45;17.95;;;;;;;-145.69;100.00;71684.97;5073512;28;20195;-79
2022/07/10 04:43:04;;;;;;;25.35;17.00;;;;;;;-145.69;100.00;71677.00;5073495;28;20263;-79
2022/07/10 04:45:32;;;;;;;25.25;17.50;;;;;;;-145.69;100.00;71675.00;5073401;28;20793;-81
2022/07/10 04:47:58;;;;;;;29.58;17.88;;;;;;;-145.69;100.00;71675.00;5073199;28;20215;-79
2022/07/10 04:50:25;;;;;;;28.83;17.13;;;;;;;-145.69;100.00;71684.97;5073034;28;20700;-79
2022/07/10 04:52:51;;;;;;;24.08;17.27;;;;;;;-145.69;100.00;71673.03;5073424;28;20198;-79
2022/07/10 04:55:17;;;;;;;33.53;18.77;;;;;;;-145.69;100.00;71692.94;5073312;28;20207;-80
2022/07/10 04:57:44;;;;;;;30.35;17.73;;;;;;;-145.69;100.00;71692.94;5072747;28;20203;-81
2022/07/10 05:00:12;;;;;;;29.80;17.48;;;;;;;-145.69;100.00;71700.88;5072798;28;20226;-80
2022/07/10 05:02:39;;;;;;;23.75;16.67;;;;;;;-145.69;100.00;71708.84;5052449;28;20203;-79
2022/07/10 05:05:07;;;;;;;25.35;16.60;;;;;;;-145.69;100.00;71706.84;5053149;28;20202;-79
2022/07/10 05:07:33;;;;;;;29.42;16.40;;;;;;;-145.69;100.00;71684.97;5052144;28;20226;-81
2022/07/10 05:10:00;;;;;;;23.65;15.93;;;;;;;-145.69;100.00;71696.91;5053134;28;20211;-80
2022/07/10 05:12:27;;;;;;;26.80;16.77;;;;;;;-145.69;100.00;71673.03;5052864;28;20654;-80
2022/07/10 05:14:53;;;;;;;25.55;15.63;;;;;;;-145.69;100.00;71653.13;5052862;28;20204;-79
2022/07/10 05:17:19;;;;;;;24.08;14.40;;;;;;;-145.69;100.00;71649.16;5052910;28;20554;-80
2022/07/10 05:19:47;;;;;;;24.98;15.50;;;;;;;-145.69;100.00;71661.09;5052805;28;20233;-80
2022/07/10 05:22:14;;;;;;;24.50;15.07;;;;;;;-145.69;100.00;71669.03;5052679;28;20199;-78
2022/07/10 05:24:40;;;;;;;24.38;15.32;;;;;;;-145.69;100.00;71671.03;5052934;28;20609;-81
2022/07/10 05:27:07;;;;;;;22.15;14.35;;;;;;;-145.69;100.00;71686.97;5052863;28;20223;-80
2022/07/10 05:29:33;;;;;;;23.38;15.10;;;;;;;-145.69;100.00;71696.91;5052939;28;20211;-79
2022/07/10 05:32:00;;;;;;;23.50;15.52;;;;;;;-145.69;100.00;71700.88;5070081;28;20205;-79
2022/07/10 05:34:26;;;;;;;22.67;13.30;;;;;;;-145.69;100.00;71679.00;5072970;28;20226;-79
2022/07/10 05:36:54;;;;;;;19.60;12.38;;;;;;;-145.69;100.00;71667.06;5055775;28;20195;-80
2022/07/10 05:39:25;;;;;;;18.50;13.18;;;;;;;-145.69;100.00;71661.09;5070673;28;20454;-80
2022/07/10 05:41:52;;;;;;;17.90;11.55;;;;;;;-145.69;100.00;71637.19;5072698;28;20222;-81
2022/07/10 05:44:19;;;;;;;17.38;10.77;;;;;;;-145.69;100.00;71615.31;5072606;28;20569;-81
2022/07/10 05:46:46;;;;;;;15.95;10.55;;;;;;;-145.69;100.00;71617.31;5072752;28;20209;-82
2022/07/10 05:49:12;;;;;;;15.07;9.68;;;;;;;-145.69;100.00;71613.31;5072584;28;20234;-80
2022/07/10 05:51:39;;;;;;;17.23;10.77;;;;;;;-145.69;100.00;71629.25;5072619;28;20206;-82
2022/07/10 05:54:07;;;;;;;18.80;10.55;;;;;;;-145.69;100.00;71633.22;5072638;28;20199;-81
2022/07/10 05:56:33;;;;;;;16.90;10.18;;;;;;;-145.69;100.00;71617.31;5072447;28;20203;-80
2022/07/10 05:58:59;;;;;;;14.85;9.68;;;;;;;-145.69;100.00;71633.22;5072745;28;20231;-80
2022/07/10 06:01:26;;;;;;;12.95;9.98;;;;;;;-145.69;100.00;71643.19;5072367;28;20191;-80
2022/07/10 06:03:53;;;;;;;15.38;9.80;;;;;;;-145.69;100.00;71653.13;5072416;28;20239;-80
2022/07/10 06:06:20;;;;;;;15.32;9.48;;;;;;;-145.69;100.00;71641.19;5072450;28;20218;-81
2022/07/10 06:08:46;;;;;;;15.90;8.98;;;;;;;-145.69;100.00;71603.38;5072503;28;20211;-80
2022/07/10 06:11:15;;;;;;;16.85;8.68;;;;;;;-145.69;100.00;71549.66;5072601;28;20558;-83
2022/07/10 06:13:42;;;;;;;13.48;7.10;;;;;;;-145.69;100.00;71529.75;5072701;28;20199;-81
2022/07/10 06:16:08;;;;;;;12.48;6.80;;;;;;;-145.69;100.00;71525.78;5072507;28;20202;-81
2022/07/10 06:18:35;;;;;;;11.60;6.82;;;;;;;-145.69;100.00;71483.97;5073494;28;20233;-81
2022/07/10 06:21:01;;;;;;;10.32;5.60;;;;;;;-145.69;100.00;71478.00;5075839;28;20203;-79
2022/07/10 06:23:31;;;;;;;8.68;5.93;;;;;;;-145.69;100.00;71474.03;5076007;28;20199;-82
2022/07/10 06:26:00;;;;;;;8.10;6.30;;;;;;;-145.69;100.00;71513.81;5075545;28;20222;-83
2022/07/10 06:28:33;;;;;;;9.00;5.80;;;;;;;-145.69;100.00;71537.72;5075968;28;20669;-81
2022/07/10 06:31:02;;;;;;;12.73;6.18;;;;;;;-145.69;100.00;71539.69;5075648;28;20195;-83
2022/07/10 06:33:37;;;;;;;10.40;5.57;;;;;;;-145.69;100.00;71513.81;5075836;28;20203;-82
2022/07/10 06:36:04;;;;;;;7.20;5.00;;;;;;;-145.69;100.00;71480.00;5075698;28;20205;-82
2022/07/10 06:38:35;;;;;;;9.30;5.40;;;;;;;-145.69;100.00;71523.78;5075110;28;20244;-81
2022/07/10 06:41:05;;;;;;;7.60;5.45;;;;;;;-145.69;100.00;71495.91;5075490;28;20290;-81
2022/07/10 06:43:32;;;;;;;10.02;4.75;;;;;;;-145.69;100.00;71493.94;5075533;28;20198;-82
2022/07/10 06:45:59;;;;;;;8.13;4.90;;;;;;;-145.69;98.34;71501.88;5075558;28;20238;-84
2022/07/10 06:48:27;;;;;;;10.65;5.68;;;;;;;-145.69;100.00;71531.75;5075480;28;20198;-83
2022/07/10 06:50:58;;;;;;;12.82;5.35;;;;;;;-145.69;100.00;71621.28;5075490;28;20207;-82
2022/07/10 06:53:26;;;;;;;11.30;5.72;;;;;;;-145.69;100.00;71617.31;5076019;28;20278;-82
2022/07/10 06:55:53;;;;;;;11.73;6.18;;;;;;;-145.69;100.00;71613.31;5075515;28;20220;-81
2022/07/10 06:58:21;;;;;;;9.57;5.65;;;;;;;-145.69;100.00;71589.44;5075141;28;20195;-84
2022/07/10 07:00:49;;;;;;;9.18;5.35;;;;;;;-145.69;100.00;71585.47;5075179;28;20202;-82
2022/07/10 07:03:18;;;;;;;13.30;6.05;;;;;;;-145.69;100.00;71601.38;5075084;28;20213;-83
2022/07/10 07:05:44;;;;;;;9.82;5.38;;;;;;;-145.69;100.00;71633.22;5074932;28;20199;-83
2022/07/10 07:08:13;;;;;;;9.07;5.32;;;;;;;-145.69;100.00;71641.19;5075111;28;20657;-81
2022/07/10 07:10:39;;;;;;;10.57;5.65;;;;;;;-145.69;100.00;71657.09;5075435;28;20210;-82
2022/07/10 07:13:06;;;;;;;11.25;5.40;;;;;;;-145.69;100.00;71671.03;5075186;28;20205;-82
2022/07/10 07:15:38;;;;;;;9.65;5.07;;;;;;;-145.69;100.00;71673.03;5075064;28;20582;-83
2022/07/10 07:18:12;;;;;;;10.07;5.65;;;;;;;-145.69;100.00;71688.94;5074759;28;20230;-83
2022/07/10 07:23:24;;;;;;;9.25;5.10;;;;;;;-145.69;100.00;71595.41;5075189;28;20656;-83
2022/07/10 07:25:51;;;;;;;6.80;4.50;;;;;;;-145.69;100.00;71559.59;5074864;28;20194;-82
2022/07/10 07:28:19;;;;;;;7.75;4.43;;;;;;;-145.69;100.00;71579.50;5074766;28;20210;-80
2022/07/10 07:30:46;;;;;;;12.48;4.43;;;;;;;-145.69;100.00;71539.69;5071897;28;20199;-79
2022/07/10 07:33:14;;;;;;;7.05;4.10;;;;;;;-145.69;96.86;71464.09;5075030;28;20194;-80
2022/07/10 07:35:40;;;;;;;7.20;3.75;;;;;;;-145.69;94.90;71458.09;5074852;28;20202;-82
2022/07/10 07:38:07;;;;;;;7.40;3.45;;;;;;;-145.69;94.91;71493.94;5075060;28;20214;-81
2022/07/10 07:40:34;;;;;;;7.00;3.15;;;;;;;-145.69;97.45;71539.69;5074552;28;20697;-83
2022/07/10 07:43:00;;;;;;;5.78;3.08;;;;;;;-145.69;99.42;71513.81;5074889;28;20202;-81
2022/07/10 07:45:27;;;;;;;4.90;3.20;;;;;;;-145.69;98.35;71545.66;5074631;28;20201;-82
2022/07/10 07:47:55;;;;;;;8.43;3.30;;;;;;;-145.69;95.92;71478.00;5074604;28;20203;-82
2022/07/10 07:50:26;;;;;;;6.13;2.92;;;;;;;-145.69;92.97;71396.44;5074404;28;20831;-82
2022/07/10 07:52:53;;;;;;;5.82;2.92;;;;;;;-145.69;96.19;71430.25;5074006;28;20202;-83
2022/07/10 07:55:21;;;;;;;6.50;3.30;;;;;;;-145.69;89.77;71446.16;5074315;28;20199;-81
2022/07/10 07:57:48;;;;;;;6.28;3.25;;;;;;;-145.69;92.07;71472.03;5074434;28;20210;-83
2022/07/10 08:00:17;;;;;;;8.00;3.35;;;;;;;-145.69;91.62;71478.00;5073605;28;20318;-84
2022/07/10 08:02:43;;;;;;;8.38;3.38;;;;;;;-145.69;90.74;71470.06;5074207;28;20198;-85
2022/07/10 08:05:10;;;;;;;7.38;3.80;;;;;;;-145.69;92.28;71533.72;5074216;28;20557;-82
2022/07/10 08:07:40;;;;;;;9.63;2.97;;;;;;;-145.69;93.47;71509.84;5073999;28;20203;-81
2022/07/10 08:10:10;;;;;;;6.80;3.13;;;;;;;-145.69;89.87;71474.03;5073522;28;20207;-81
2022/07/10 08:12:36;;;;;;;6.25;2.67;;;;;;;-145.69;87.78;71420.31;5074044;28;20205;-81
2022/07/10 08:15:03;;;;;;;5.95;2.83;;;;;;;-145.69;86.55;71416.31;5073953;28;20205;-82
2022/07/10 08:17:30;;;;;;;4.82;2.83;;;;;;;-145.69;85.88;71416.31;5073833;28;20206;-82
2022/07/10 08:19:56;;;;;;;4.65;2.50;;;;;;;-145.69;86.73;71450.16;5073761;28;20253;-83
2022/07/10 08:22:23;;;;;;;4.25;2.63;;;;;;;-145.69;85.95;71458.09;5073622;28;20206;-83
2022/07/10 08:24:50;;;;;;;7.25;2.65;;;;;;;-145.69;85.58;71454.13;5073527;28;20195;-82
2022/07/10 08:27:17;;;;;;;10.00;2.58;;;;;;;-145.69;83.92;71464.09;5073815;28;20203;-83
2022/07/10 08:29:43;;;;;;;5.82;2.33;;;;;;;-145.69;84.40;71440.19;5073446;28;20191;-80
2022/07/10 08:32:10;;;;;;;6.32;2.33;;;;;;;-145.69;85.41;71434.22;5073678;28;20195;-81
2022/07/10 08:34:36;;;;;;;5.40;2.40;;;;;;;-145.69;84.69;71489.94;5073494;28;20228;-85
2022/07/10 08:37:03;;;;;;;5.75;2.20;;;;;;;-145.69;88.37;71521.78;5073340;28;20199;-80
2022/07/10 08:39:30;;;;;;;8.60;2.90;;;;;;;-145.69;88.65;71505.88;5072778;28;20846;-81
2022/07/10 08:41:58;;;;;;;7.38;2.67;;;;;;;-145.69;84.80;71424.28;5073207;28;20645;-82
2022/07/10 08:44:24;;;;;;;7.40;2.65;;;;;;;-145.69;78.55;71392.44;5073457;28;20199;-81
2022/07/10 08:46:51;;;;;;;6.03;2.47;;;;;;;-145.69;80.04;71338.72;5073470;28;20198;-82
2022/07/10 08:49:18;;;;;;;12.45;2.80;;;;;;;-145.69;75.76;71300.91;5072900;28;20245;-82
2022/07/10 08:51:49;;;;;;;6.45;2.70;;;;;;;-145.69;76.61;71263.09;5073182;28;20198;-81
2022/07/10 08:54:16;;;;;;;4.25;2.00;;;;;;;-145.69;76.90;71229.28;5073318;28;20269;-80
2022/07/10 08:56:42;;;;;;;8.65;2.33;;;;;;;-145.69;75.62;71227.28;5073415;28;20202;-83
2022/07/10 08:59:13;;;;;;;4.82;2.00;;;;;;;-145.69;72.21;71239.22;5072837;28;20226;-81
2022/07/10 09:01:39;;;;;;;6.70;2.50;;;;;;;-145.69;69.51;71257.13;5072969;28;20195;-84
2022/07/10 09:04:05;;;;;;;8.90;2.25;;;;;;;-145.69;70.98;71209.38;5073185;28;20205;-81
2022/07/10 09:06:32;;;;;;;5.38;2.42;;;;;;;-145.69;69.79;71195.47;5072969;28;20206;-81
2022/07/10 09:09:01;;;;;;;4.95;1.80;;;;;;;-145.69;68.05;71177.53;5072906;28;20572;-80
2022/07/10 09:11:30;;;;;;;3.65;1.60;;;;;;;-145.69;68.54;71187.50;5073105;28;20202;-81
2022/07/10 09:13:58;;;;;;;4.45;1.70;;;;;;;-145.69;69.17;71187.50;5072929;28;20225;-82
2022/07/10 09:16:27;;;;;;;5.43;1.70;;;;;;;-145.69;67.18;71199.44;5073033;28;20569;-81
2022/07/10 09:18:54;;;;;;;3.72;1.63;;;;;;;-145.69;69.60;71215.34;5073037;28;20206;-83
2022/07/10 09:21:21;;;;;;;3.85;1.65;;;;;;;-145.69;71.57;71195.47;5072745;28;20264;-82
2022/07/10 09:23:48;;;;;;;6.35;1.90;;;;;;;-145.69;70.74;71213.38;5073072;28;20570;-81
2022/07/10 09:26:14;;;;;;;6.60;1.98;;;;;;;-145.69;65.77;71193.47;5072091;28;20466;-82
2022/07/10 09:28:41;;;;;;;3.75;1.63;;;;;;;-145.69;64.85;71171.56;5071952;28;20199;-83
2022/07/10 09:31:07;;;;;;;4.28;1.77;;;;;;;-145.69;64.10;71135.75;5054313;28;20681;-81
2022/07/10 09:33:37;;;;;;;6.15;1.60;;;;;;;-145.69;61.36;71097.97;5064564;28;20209;-81
2022/07/10 09:36:10;;;;;;;4.68;1.90;;;;;;;-145.69;65.75;71199.44;5072898;28;20203;-85
2022/07/10 09:38:57;;;;;;;7.82;2.15;;;;;;;-145.69;64.72;71135.75;5072896;28;20718;-80
2022/07/10 09:41:37;;;;;;;2.63;1.50;;;;;;;-145.69;nan;71084.03;5073117;28;20437;-82
2022/07/10 09:44:05;;;;;;;4.80;1.77;;;;;;;-145.69;65.66;71169.59;5072789;28;20203;-81
2022/07/10 09:46:35;;;;;;;4.57;1.60;;;;;;;-145.69;65.14;71175.56;5072851;28;20209;-80
2022/07/10 09:49:08;;;;;;;4.95;1.65;;;;;;;-145.69;64.78;71103.94;5072865;28;20230;-83
2022/07/10 09:51:37;;;;;;;2.75;1.35;;;;;;;-145.69;60.36;71121.84;5073230;28;20209;-79
2022/07/10 09:54:05;;;;;;;4.80;1.70;;;;;;;-145.69;61.61;71117.84;5074382;28;20203;-82
2022/07/10 09:56:40;;;;;;;3.97;1.55;;;;;;;-145.69;61.42;71103.94;5076770;28;20229;-85
2022/07/10 09:59:10;;;;;;;2.95;1.80;;;;;;;-145.69;63.58;71191.47;5076610;28;20225;-81
2022/07/10 10:01:38;;;;;;;3.15;1.40;;;;;;;-145.69;66.46;71139.75;5076195;28;20572;-80
2022/07/10 10:04:07;;;;;;;5.95;1.80;;;;;;;-145.69;66.18;71197.44;5076140;28;20234;-80
2022/07/10 10:06:34;;;;;;;8.45;1.85;;;;;;;-145.69;65.78;71161.63;5076280;28;20206;-81
2022/07/10 10:09:06;;;;;;;5.30;1.85;;;;;;;-145.69;62.60;71185.50;5075937;28;20209;-81
2022/07/10 10:11:40;;;;;;;4.40;1.70;;;;;;;-145.69;64.31;71211.38;5076150;28;20207;-82
2022/07/10 10:14:08;;;;;;;2.95;1.40;;;;;;;-145.69;69.28;71177.53;5076537;28;20210;-80
2022/07/10 10:16:35;;;;;;;4.35;1.77;;;;;;;-145.69;65.32;71155.66;5075795;28;20203;-81
2022/07/10 10:21:50;;;;;;;6.85;1.85;;;;;;;-145.69;61.48;71135.75;5058297;28;20280;-81
2022/07/10 10:24:18;;;;;;;5.13;1.83;;;;;;;-145.69;60.49;71113.88;5075729;28;20198;-83
2022/07/10 10:26:46;;;;;;;4.90;1.70;;;;;;;-145.69;62.05;71171.56;5075951;28;20673;-80
2022/07/10 10:29:12;;;;;;;4.00;1.70;;;;;;;-145.69;66.90;71153.66;5075208;28;20248;-80
2022/07/10 10:31:40;;;;;;;2.88;1.42;;;;;;;-145.69;62.04;71119.84;5075957;28;20202;-82
2022/07/10 10:34:10;;;;;;;3.20;1.67;;;;;;;-145.69;65.06;71111.88;5075839;28;20642;-81
2022/07/10 10:36:48;;;;;;;4.00;1.67;;;;;;;-145.69;59.63;71097.97;5075907;28;20538;-81
2022/07/10 10:39:18;;;;;;;4.55;1.60;;;;;;;-145.69;60.21;71107.91;5075613;28;20203;-80
2022/07/10 10:41:54;;;;;;;7.20;1.63;;;;;;;-145.69;60.79;71080.06;5075574;28;20588;-81
2022/07/10 10:44:31;;;;;;;6.47;1.60;;;;;;;-145.69;62.49;71076.06;5076101;28;20209;-83
2022/07/10 10:47:07;;;;;;;4.03;1.50;;;;;;;-145.69;57.67;71121.84;5075778;28;20611;-82
2022/07/10 10:50:06;;;;;;;3.05;1.67;;;;;;;-145.69;60.32;71173.56;5075443;28;20291;-82
2022/07/10 10:52:32;;;;;;;5.22;1.42;;;;;;;-145.69;62.82;71249.19;5073025;28;20234;-83
2022/07/10 10:55:14;;;;;;;5.93;1.55;;;;;;;-145.69;66.55;71263.09;5075892;28;20202;-80
2022/07/10 10:57:53;;;;;;;2.85;1.55;;;;;;;-145.69;72.06;71235.25;5075206;28;20205;-80
2022/07/10 11:00:38;;;;;;;5.05;2.00;;;;;;;-145.69;65.44;71225.31;5074886;28;20703;-80
2022/07/10 11:03:15;;;;;;;5.93;1.98;;;;;;;-145.69;65.89;71159.63;5075148;28;20314;-80
2022/07/10 11:05:43;;;;;;;6.60;1.67;;;;;;;-145.69;59.35;71117.84;5074005;28;20202;-81
2022/07/10 11:08:19;;;;;;;3.40;1.63;;;;;;;-145.69;61.46;71076.06;5075306;28;20218;-81
2022/07/10 11:10:48;;;;;;;5.75;1.70;;;;;;;-145.69;59.66;71092.00;5074031;28;20426;-83
2022/07/10 11:13:15;;;;;;;6.88;1.80;;;;;;;-145.69;60.99;71139.75;5074997;28;20213;-80
2022/07/10 11:15:44;;;;;;;5.07;1.60;;;;;;;-145.69;62.54;71064.13;5075328;28;20202;-81
2022/07/10 11:18:12;;;;;;;4.32;1.60;;;;;;;-145.69;57.47;71022.34;5075142;28;20210;-81
2022/07/10 11:20:41;;;;;;;5.35;1.90;;;;;;;-145.69;56.42;71042.25;5074790;28;20237;-81
2022/07/10 11:23:47;;;;;;;4.38;1.58;;;;;;;-145.69;57.11;71052.19;5074955;28;20342;-81